Northumberland, New Hampshire
Current Conditions -  °F | °C
As of 2:52 AM on Saturday 25 Oct 2014 (Local Time) from KHIE Reporting Station
Moderate Fog Moderate Fog  
Wind Chill: 36°   Ceiling: 100
Heat Index: 36°   Visibility: 0.5mi
Dew Point: 35°   Wind: 0mph
Humidity: 97%   Direction: NA
Pressure: 29.76"   Gusts: NA
Location:  44.3946°N, 71.4295°W
Report Text: KHIE 250652Z AUTO 00000KT 1/2SM FG VV001 02/02 A2976 RMK AO2 SLP085 T00220017
Loading
Personal Weather Stations






























Interactive Weather Map
Tropical Storm Tracking
New forecast layout! Learn more

10-Day Weather Forecast

Advertisements
Track Severe Weather on mobile